Time;durP1;ratioP1;P1;durP2;ratioP2;P2;SDS_P1;SDS_P2;PMS_P1;PMS_P2;Temp;Humidity;BMP_temperature;BMP_pressure;BME280_temperature;BME280_humidity;BME280_pressure;Samples;Min_cycle;Max_cycle;Signal;HPM_P1;HPM_P2
2021/05/02 00:00:09;;;;;;;14.38;4.10;;;;;;;;;;2089424;28;20494;-66
2021/05/02 00:01:10;;;;;;;12.73;4.15;;;;;;;;;;2089163;28;20033;-66
2021/05/02 00:02:10;;;;;;;16.60;4.80;;;;;;;;;;2089223;28;20057;-68
2021/05/02 00:03:10;;;;;;;14.57;4.30;;;;;;;;;;2089143;28;20388;-68
2021/05/02 00:04:11;;;;;;;10.75;4.10;;;;;;;;;;2089215;28;20033;-68
2021/05/02 00:05:12;;;;;;;13.68;4.43;;;;;;;;;;2089163;28;20029;-68
2021/05/02 00:06:12;;;;;;;13.95;3.78;;;;;;;;;;2089317;28;20078;-66
2021/05/02 00:07:13;;;;;;;10.73;4.47;;;;;;;;;;2088815;28;20029;-64
2021/05/02 00:08:13;;;;;;;13.00;4.38;;;;;;;;;;2096874;28;20413;-70
2021/05/02 00:09:13;;;;;;;11.70;4.07;;;;;;;;;;2096790;28;20429;-68
2021/05/02 00:10:14;;;;;;;11.52;4.10;;;;;;;;;;2089257;28;20399;-70
2021/05/02 00:11:15;;;;;;;10.00;4.55;;;;;;;;;;2089159;28;20468;-70
2021/05/02 00:12:15;;;;;;;12.25;4.18;;;;;;;;;;2088498;28;20036;-69
2021/05/02 00:13:15;;;;;;;16.48;3.83;;;;;;;;;;2088681;28;20033;-70
2021/05/02 00:14:16;;;;;;;9.75;3.88;;;;;;;;;;2088942;28;20471;-70
2021/05/02 00:15:17;;;;;;;10.15;3.58;;;;;;;;;;2089289;28;20021;-67
2021/05/02 00:16:17;;;;;;;11.50;4.07;;;;;;;;;;2089023;28;20044;-65
2021/05/02 00:17:18;;;;;;;11.65;4.10;;;;;;;;;;2089076;28;20167;-69
2021/05/02 00:18:23;;;;;;;11.30;3.92;;;;;;;;;;2089197;28;20033;-68
2021/05/02 00:19:24;;;;;;;12.00;3.92;;;;;;;;;;2087653;28;20043;-68
2021/05/02 00:20:25;;;;;;;10.45;3.58;;;;;;;;;;2088513;28;20088;-68
2021/05/02 00:21:25;;;;;;;8.88;3.83;;;;;;;;;;2088915;28;20060;-68
2021/05/02 00:22:25;;;;;;;8.63;3.63;;;;;;;;;;2088675;28;20045;-65
2021/05/02 00:23:26;;;;;;;13.48;3.90;;;;;;;;;;2088246;28;20047;-65
2021/05/02 00:24:26;;;;;;;10.55;3.83;;;;;;;;;;2088497;28;20029;-65
2021/05/02 00:25:30;;;;;;;9.95;3.65;;;;;;;;;;2088601;28;20037;-68
2021/05/02 00:26:31;;;;;;;8.30;3.70;;;;;;;;;;2088578;28;20120;-67
2021/05/02 00:27:31;;;;;;;7.95;3.90;;;;;;;;;;2088404;28;20059;-67
2021/05/02 00:28:33;;;;;;;8.95;3.75;;;;;;;;;;2088252;28;20124;-68
2021/05/02 00:29:35;;;;;;;7.45;3.28;;;;;;;;;;2089178;28;20196;-66
2021/05/02 00:30:35;;;;;;;11.07;3.40;;;;;;;;;;2089170;28;20025;-70
2021/05/02 00:31:39;;;;;;;10.07;3.42;;;;;;;;;;2089110;28;20032;-68
2021/05/02 00:32:43;;;;;;;6.95;3.20;;;;;;;;;;2089040;28;20088;-68
2021/05/02 00:33:43;;;;;;;7.30;3.42;;;;;;;;;;2089171;28;20615;-67
2021/05/02 00:34:44;;;;;;;7.10;3.70;;;;;;;;;;2088878;28;20040;-67
2021/05/02 00:35:44;;;;;;;9.80;3.60;;;;;;;;;;2088907;28;20528;-67
2021/05/02 00:36:46;;;;;;;9.88;3.53;;;;;;;;;;2088718;28;20053;-66
2021/05/02 00:37:46;;;;;;;5.80;3.00;;;;;;;;;;2089061;28;20029;-68
2021/05/02 00:38:47;;;;;;;8.85;3.17;;;;;;;;;;2089153;28;20086;-68
2021/05/02 00:39:47;;;;;;;8.02;3.70;;;;;;;;;;2089062;28;20369;-67
2021/05/02 00:40:53;;;;;;;8.32;3.47;;;;;;;;;;2088962;28;20091;-67
2021/05/02 00:41:57;;;;;;;8.00;3.40;;;;;;;;;;2089184;28;20384;-67
2021/05/02 00:42:58;;;;;;;7.32;2.95;;;;;;;;;;2088896;28;20111;-68
2021/05/02 00:44:03;;;;;;;7.88;3.40;;;;;;;;;;2088885;28;20037;-68
2021/05/02 00:45:05;;;;;;;5.55;2.92;;;;;;;;;;2082562;28;20112;-68
2021/05/02 00:46:11;;;;;;;6.47;3.00;;;;;;;;;;2089188;28;20066;-67
2021/05/02 00:47:15;;;;;;;7.28;2.90;;;;;;;;;;2088932;28;20449;-68
2021/05/02 00:48:20;;;;;;;7.35;3.25;;;;;;;;;;2088954;28;20041;-68
2021/05/02 00:49:29;;;;;;;4.55;2.80;;;;;;;;;;2088798;28;20032;-68
2021/05/02 00:50:33;;;;;;;5.00;3.00;;;;;;;;;;2089151;28;20071;-68
2021/05/02 00:51:37;;;;;;;5.85;2.90;;;;;;;;;;2088562;28;20037;-67
2021/05/02 00:52:47;;;;;;;6.53;3.20;;;;;;;;;;2088962;28;20567;-68
2021/05/02 00:53:53;;;;;;;4.88;2.90;;;;;;;;;;2088912;28;20078;-68
2021/05/02 00:55:01;;;;;;;6.43;3.20;;;;;;;;;;2088896;28;20025;-68
2021/05/02 00:56:15;;;;;;;5.60;3.05;;;;;;;;;;2089008;28;20392;-68
2021/05/02 00:57:19;;;;;;;6.45;2.70;;;;;;;;;;2096362;28;20028;-68
2021/05/02 00:58:31;;;;;;;5.10;3.00;;;;;;;;;;2095959;28;21011;-67
2021/05/02 00:59:42;;;;;;;4.47;2.80;;;;;;;;;;2088899;28;20043;-67
2021/05/02 01:00:44;;;;;;;4.55;3.00;;;;;;;;;;2083026;28;20060;-67
2021/05/02 01:01:48;;;;;;;5.63;2.80;;;;;;;;;;2088844;28;20079;-67
2021/05/02 01:02:55;;;;;;;5.32;2.90;;;;;;;;;;2088988;28;20032;-67
2021/05/02 01:03:58;;;;;;;5.00;2.80;;;;;;;;;;2082457;28;20112;-67
2021/05/02 01:05:01;;;;;;;5.53;2.50;;;;;;;;;;2088790;28;20067;-68
2021/05/02 01:06:05;;;;;;;5.30;2.58;;;;;;;;;;2088662;28;20029;-67
2021/05/02 01:07:08;;;;;;;6.72;2.92;;;;;;;;;;2088904;28;20021;-67
2021/05/02 01:08:09;;;;;;;4.85;2.85;;;;;;;;;;2088959;28;20075;-67
2021/05/02 01:09:09;;;;;;;5.25;3.00;;;;;;;;;;2088886;28;20499;-67
2021/05/02 01:10:09;;;;;;;5.63;2.88;;;;;;;;;;2088960;28;20104;-67
2021/05/02 01:11:11;;;;;;;7.20;3.20;;;;;;;;;;2088814;28;20040;-67
2021/05/02 01:12:13;;;;;;;4.18;2.90;;;;;;;;;;2088928;28;20035;-69
2021/05/02 01:13:13;;;;;;;6.80;2.78;;;;;;;;;;2088584;28;20479;-68
2021/05/02 01:14:18;;;;;;;5.03;2.78;;;;;;;;;;2088892;28;20074;-69
2021/05/02 01:15:26;;;;;;;4.97;2.78;;;;;;;;;;2088837;28;20555;-68
2021/05/02 01:16:27;;;;;;;4.82;2.53;;;;;;;;;;2088970;28;20494;-68
2021/05/02 01:17:29;;;;;;;4.30;2.65;;;;;;;;;;2088834;28;20057;-68
2021/05/02 01:18:29;;;;;;;5.28;2.65;;;;;;;;;;2088859;28;20083;-68
2021/05/02 01:19:30;;;;;;;3.25;2.30;;;;;;;;;;2088656;28;20495;-68
2021/05/02 01:20:31;;;;;;;5.13;2.75;;;;;;;;;;2088601;28;20104;-68
2021/05/02 01:21:35;;;;;;;5.97;2.80;;;;;;;;;;2088859;28;20029;-68
2021/05/02 01:22:36;;;;;;;2.97;2.35;;;;;;;;;;2088930;28;20035;-68
2021/05/02 01:23:37;;;;;;;4.50;2.35;;;;;;;;;;2088739;28;20025;-68
2021/05/02 01:24:37;;;;;;;4.38;2.58;;;;;;;;;;2088816;28;20488;-68
2021/05/02 01:25:38;;;;;;;3.50;2.40;;;;;;;;;;2088835;28;20029;-68
2021/05/02 01:26:43;;;;;;;5.03;2.35;;;;;;;;;;2088731;28;20104;-68
2021/05/02 01:27:43;;;;;;;5.18;2.50;;;;;;;;;;2081985;28;20033;-68
2021/05/02 01:28:44;;;;;;;3.22;2.15;;;;;;;;;;2088883;28;20094;-68
2021/05/02 01:29:45;;;;;;;4.40;2.55;;;;;;;;;;2088856;28;20025;-68
2021/05/02 01:30:45;;;;;;;4.20;2.20;;;;;;;;;;2089963;28;20116;-68
2021/05/02 01:31:45;;;;;;;3.38;2.40;;;;;;;;;;2090419;28;20064;-68
2021/05/02 01:32:46;;;;;;;4.30;2.33;;;;;;;;;;2090443;28;20044;-68
2021/05/02 01:33:46;;;;;;;3.25;2.17;;;;;;;;;;2090323;28;20082;-68
2021/05/02 01:34:47;;;;;;;4.75;2.45;;;;;;;;;;2090240;28;20033;-68
2021/05/02 01:35:47;;;;;;;4.07;2.50;;;;;;;;;;2089232;28;20083;-68
2021/05/02 01:36:47;;;;;;;3.65;2.30;;;;;;;;;;2089810;28;20107;-68
2021/05/02 01:37:50;;;;;;;4.00;2.28;;;;;;;;;;2090295;28;20033;-68
2021/05/02 01:38:51;;;;;;;3.50;2.28;;;;;;;;;;2090419;28;20413;-68
2021/05/02 01:39:51;;;;;;;3.08;1.95;;;;;;;;;;2090348;28;20488;-68
2021/05/02 01:40:54;;;;;;;3.60;2.38;;;;;;;;;;2090504;28;20033;-68
2021/05/02 01:41:54;;;;;;;3.35;2.15;;;;;;;;;;2090432;28;20035;-68
2021/05/02 01:42:54;;;;;;;4.43;2.20;;;;;;;;;;2089406;28;20043;-68
2021/05/02 01:43:55;;;;;;;2.38;2.17;;;;;;;;;;2089743;28;20111;-67
2021/05/02 01:44:55;;;;;;;3.60;1.95;;;;;;;;;;2090238;28;20025;-66
2021/05/02 01:45:55;;;;;;;6.03;1.98;;;;;;;;;;2090464;28;20059;-66
2021/05/02 01:46:58;;;;;;;2.97;2.10;;;;;;;;;;2090388;28;20476;-66
2021/05/02 01:48:00;;;;;;;3.65;2.30;;;;;;;;;;2090343;28;20033;-67
2021/05/02 01:49:01;;;;;;;2.70;2.10;;;;;;;;;;2090245;28;20025;-67
2021/05/02 01:50:06;;;;;;;3.38;2.30;;;;;;;;;;2089908;28;20033;-66
2021/05/02 01:51:09;;;;;;;3.75;2.10;;;;;;;;;;2090345;28;20051;-66
2021/05/02 01:52:09;;;;;;;2.88;2.10;;;;;;;;;;2090315;28;20032;-67
2021/05/02 01:53:10;;;;;;;3.67;2.30;;;;;;;;;;2090282;28;20044;-67
2021/05/02 01:54:13;;;;;;;2.95;2.22;;;;;;;;;;2090228;28;20055;-68
2021/05/02 01:55:14;;;;;;;3.88;2.40;;;;;;;;;;2090295;28;20401;-67
2021/05/02 01:56:15;;;;;;;3.25;2.13;;;;;;;;;;2090244;28;20033;-68
2021/05/02 01:57:25;;;;;;;3.22;2.13;;;;;;;;;;2090111;28;20487;-68
2021/05/02 01:58:25;;;;;;;2.65;2.03;;;;;;;;;;2090401;28;20037;-68
2021/05/02 01:59:26;;;;;;;2.90;2.00;;;;;;;;;;2090207;28;20043;-68
2021/05/02 02:00:49;;;;;;;3.08;2.20;;;;;;;;;;2090104;28;20029;-68
2021/05/02 02:01:49;;;;;;;3.70;2.30;;;;;;;;;;2090034;28;20021;-66
2021/05/02 02:02:51;;;;;;;3.15;2.22;;;;;;;;;;2090222;28;20600;-66
2021/05/02 02:03:51;;;;;;;2.72;2.30;;;;;;;;;;2083485;28;20026;-66
2021/05/02 02:04:52;;;;;;;4.45;2.35;;;;;;;;;;2097266;28;20020;-66
2021/05/02 02:05:53;;;;;;;2.80;2.15;;;;;;;;;;2097758;28;20051;-66
2021/05/02 02:06:53;;;;;;;3.78;2.20;;;;;;;;;;2090162;28;20036;-66
2021/05/02 02:07:54;;;;;;;3.38;2.35;;;;;;;;;;2090173;28;20021;-66
2021/05/02 02:08:57;;;;;;;3.42;2.08;;;;;;;;;;2089976;28;20402;-66
2021/05/02 02:09:57;;;;;;;5.07;3.30;;;;;;;;;;2090327;28;20476;-66
2021/05/02 02:10:58;;;;;;;2.53;2.25;;;;;;;;;;2090145;28;20107;-66
2021/05/02 02:12:00;;;;;;;2.88;2.20;;;;;;;;;;2090165;28;20033;-66
2021/05/02 02:13:00;;;;;;;2.20;1.90;;;;;;;;;;2089864;28;20051;-66
2021/05/02 02:14:01;;;;;;;3.60;2.20;;;;;;;;;;2090237;28;20104;-66
2021/05/02 02:15:01;;;;;;;3.03;2.05;;;;;;;;;;2090196;28;20395;-66
2021/05/02 02:16:02;;;;;;;3.25;2.30;;;;;;;;;;2089910;28;20391;-67
2021/05/02 02:17:03;;;;;;;2.83;2.20;;;;;;;;;;2090037;28;20025;-66
2021/05/02 02:18:05;;;;;;;2.83;2.20;;;;;;;;;;2090076;28;20029;-67
2021/05/02 02:19:05;;;;;;;3.72;2.40;;;;;;;;;;2089934;28;20299;-68
2021/05/02 02:20:06;;;;;;;3.03;2.50;;;;;;;;;;2089588;28;20036;-68
2021/05/02 02:21:08;;;;;;;3.75;2.75;;;;;;;;;;2089906;28;20401;-65
2021/05/02 02:22:08;;;;;;;3.13;2.60;;;;;;;;;;2089966;28;20358;-67
2021/05/02 02:23:12;;;;;;;4.43;2.60;;;;;;;;;;2089854;28;20112;-68
2021/05/02 02:24:13;;;;;;;4.07;2.40;;;;;;;;;;2090029;28;20167;-67
2021/05/02 02:25:14;;;;;;;6.07;2.83;;;;;;;;;;2089972;28;20460;-67
2021/05/02 02:26:33;;;;;;;9.50;2.50;;;;;;;;;;2090223;28;20028;-67
2021/05/02 02:27:34;;;;;;;3.65;2.30;;;;;;;;;;2089578;28;20376;-67
2021/05/02 02:28:36;;;;;;;4.25;2.30;;;;;;;;;;2089581;28;20512;-67
2021/05/02 02:29:44;;;;;;;3.53;2.45;;;;;;;;;;2089301;28;20033;-67
2021/05/02 02:30:49;;;;;;;4.75;2.40;;;;;;;;;;2090073;28;20024;-67
2021/05/02 02:31:50;;;;;;;4.28;2.50;;;;;;;;;;2083798;28;20381;-66
2021/05/02 02:32:51;;;;;;;2.50;2.30;;;;;;;;;;2090092;28;20045;-67
2021/05/02 02:33:51;;;;;;;3.80;2.53;;;;;;;;;;2089914;28;20032;-66
2021/05/02 02:34:54;;;;;;;3.45;2.30;;;;;;;;;;2089530;28;20471;-66
2021/05/02 02:35:54;;;;;;;3.30;2.35;;;;;;;;;;2089800;28;20049;-66
2021/05/02 02:36:55;;;;;;;4.43;2.40;;;;;;;;;;2089974;28;20098;-66
2021/05/02 02:37:57;;;;;;;3.15;2.35;;;;;;;;;;2089933;28;20543;-66
2021/05/02 02:38:57;;;;;;;2.63;2.10;;;;;;;;;;2089946;28;20437;-66
2021/05/02 02:39:59;;;;;;;3.28;2.30;;;;;;;;;;2089928;28;20091;-66
2021/05/02 02:40:59;;;;;;;3.75;2.30;;;;;;;;;;2089971;28;20040;-67
2021/05/02 02:42:01;;;;;;;3.40;2.47;;;;;;;;;;2089009;28;20128;-66
2021/05/02 02:43:02;;;;;;;2.80;2.20;;;;;;;;;;2089792;28;20099;-67
2021/05/02 02:44:04;;;;;;;3.25;2.20;;;;;;;;;;2089771;28;20033;-65
2021/05/02 02:45:08;;;;;;;3.25;2.35;;;;;;;;;;2089892;28;20045;-66
2021/05/02 02:46:14;;;;;;;2.72;1.92;;;;;;;;;;2089958;28;20036;-66
2021/05/02 02:47:17;;;;;;;3.63;2.53;;;;;;;;;;2089887;28;20045;-66
2021/05/02 02:48:20;;;;;;;2.72;2.10;;;;;;;;;;2089891;28;20024;-66
2021/05/02 02:49:21;;;;;;;4.15;2.10;;;;;;;;;;2089386;28;20033;-66
2021/05/02 02:50:21;;;;;;;2.63;2.15;;;;;;;;;;2089867;28;20306;-66
2021/05/02 02:51:24;;;;;;;2.55;2.08;;;;;;;;;;2089825;28;20044;-66
2021/05/02 02:52:25;;;;;;;2.45;2.10;;;;;;;;;;2089771;28;20037;-66
2021/05/02 02:53:30;;;;;;;3.10;2.40;;;;;;;;;;2089902;28;20404;-66
2021/05/02 02:54:30;;;;;;;2.17;1.95;;;;;;;;;;2089794;28;20040;-66
2021/05/02 02:55:31;;;;;;;3.42;2.20;;;;;;;;;;2089209;28;20037;-66
2021/05/02 02:56:32;;;;;;;3.35;2.17;;;;;;;;;;2089525;28;20058;-66
2021/05/02 02:57:45;;;;;;;2.90;2.33;;;;;;;;;;2089742;28;20029;-66
2021/05/02 02:58:56;;;;;;;2.95;2.20;;;;;;;;;;2089789;28;20041;-66
2021/05/02 02:59:57;;;;;;;3.38;2.38;;;;;;;;;;2089816;28;20040;-66
2021/05/02 03:00:57;;;;;;;3.08;2.30;;;;;;;;;;2089741;28;20025;-66
2021/05/02 03:01:58;;;;;;;2.30;2.00;;;;;;;;;;2089729;28;20025;-66
2021/05/02 03:03:17;;;;;;;3.22;2.13;;;;;;;;;;2089768;28;20031;-66
2021/05/02 03:04:18;;;;;;;3.22;2.28;;;;;;;;;;2089320;28;20029;-66
2021/05/02 03:05:20;;;;;;;2.20;2.00;;;;;;;;;;2097279;28;20127;-66
2021/05/02 03:06:24;;;;;;;3.00;2.20;;;;;;;;;;2097291;28;20025;-67
2021/05/02 03:07:25;;;;;;;2.83;2.03;;;;;;;;;;2089714;28;20021;-66
2021/05/02 03:08:26;;;;;;;2.70;2.40;;;;;;;;;;2089797;28;20448;-66
2021/05/02 03:09:27;;;;;;;3.03;2.33;;;;;;;;;;2089642;28;20035;-67
2021/05/02 03:10:27;;;;;;;2.58;1.90;;;;;;;;;;2097279;28;20473;-66
2021/05/02 03:11:28;;;;;;;2.28;1.90;;;;;;;;;;2097038;28;20066;-66
2021/05/02 03:12:28;;;;;;;3.00;2.30;;;;;;;;;;2089858;28;20452;-65
2021/05/02 03:13:29;;;;;;;2.40;2.10;;;;;;;;;;2089569;28;20499;-66
2021/05/02 03:14:29;;;;;;;2.63;2.00;;;;;;;;;;2097200;28;20033;-66
2021/05/02 03:15:29;;;;;;;2.80;2.05;;;;;;;;;;2097423;28;20027;-68
2021/05/02 03:16:31;;;;;;;2.90;2.28;;;;;;;;;;2089046;28;20483;-68
2021/05/02 03:17:32;;;;;;;4.03;2.28;;;;;;;;;;2088945;28;20375;-68
2021/05/02 03:18:41;;;;;;;2.20;1.98;;;;;;;;;;2088977;28;20376;-68
2021/05/02 03:19:42;;;;;;;2.85;2.10;;;;;;;;;;2088817;28;20516;-68
2021/05/02 03:20:44;;;;;;;2.25;1.80;;;;;;;;;;2089014;28;20028;-68
2021/05/02 03:21:45;;;;;;;2.40;1.90;;;;;;;;;;2088919;28;20052;-68
2021/05/02 03:22:48;;;;;;;2.25;1.90;;;;;;;;;;2089836;28;20041;-68
2021/05/02 03:23:49;;;;;;;2.47;1.92;;;;;;;;;;2089606;28;20032;-68
2021/05/02 03:24:50;;;;;;;3.17;2.22;;;;;;;;;;2089720;28;20025;-68
2021/05/02 03:25:52;;;;;;;2.65;2.00;;;;;;;;;;2089532;28;20075;-68
2021/05/02 03:26:59;;;;;;;2.00;1.80;;;;;;;;;;2089357;28;20039;-68
2021/05/02 03:28:02;;;;;;;2.42;1.88;;;;;;;;;;2089600;28;20032;-68
2021/05/02 03:29:03;;;;;;;2.28;2.08;;;;;;;;;;2089495;28;20039;-68
2021/05/02 03:30:08;;;;;;;2.55;2.00;;;;;;;;;;2089580;28;20072;-68
2021/05/02 03:31:10;;;;;;;2.08;1.88;;;;;;;;;;2089618;28;20029;-68
2021/05/02 03:32:12;;;;;;;3.55;2.00;;;;;;;;;;2089540;28;20049;-68
2021/05/02 03:33:13;;;;;;;2.75;1.80;;;;;;;;;;2088842;28;20051;-68
2021/05/02 03:34:16;;;;;;;2.03;1.63;;;;;;;;;;2088438;28;20075;-68
2021/05/02 03:35:18;;;;;;;2.20;2.00;;;;;;;;;;2089449;28;20151;-68
2021/05/02 03:36:22;;;;;;;2.70;2.00;;;;;;;;;;2089459;28;20040;-68
2021/05/02 03:37:24;;;;;;;2.63;1.85;;;;;;;;;;2089367;28;20090;-68
2021/05/02 03:38:29;;;;;;;2.25;1.85;;;;;;;;;;2089534;28;20529;-68
2021/05/02 03:39:30;;;;;;;2.78;2.05;;;;;;;;;;2089510;28;20059;-68
2021/05/02 03:40:30;;;;;;;2.35;1.75;;;;;;;;;;2089446;28;20403;-68
2021/05/02 03:41:32;;;;;;;1.70;1.60;;;;;;;;;;2089094;28;20040;-68
2021/05/02 03:42:33;;;;;;;1.92;1.73;;;;;;;;;;2089359;28;20386;-68
2021/05/02 03:43:34;;;;;;;2.25;1.80;;;;;;;;;;2089406;28;20132;-68
2021/05/02 03:44:35;;;;;;;2.40;1.65;;;;;;;;;;2089405;28;20447;-68
2021/05/02 03:45:35;;;;;;;2.45;1.90;;;;;;;;;;2089319;28;20143;-68
2021/05/02 03:46:36;;;;;;;1.95;1.75;;;;;;;;;;2089409;28;20035;-68
2021/05/02 03:47:37;;;;;;;1.88;1.73;;;;;;;;;;2089433;28;20104;-68
2021/05/02 03:48:37;;;;;;;2.15;1.80;;;;;;;;;;2089128;28;20475;-67
2021/05/02 03:49:38;;;;;;;2.03;1.70;;;;;;;;;;2089211;28;20472;-68
2021/05/02 03:50:38;;;;;;;2.30;1.90;;;;;;;;;;2088633;28;20522;-68
2021/05/02 03:51:40;;;;;;;2.50;1.77;;;;;;;;;;2088807;28;20533;-67
2021/05/02 03:52:40;;;;;;;2.60;1.77;;;;;;;;;;2086535;28;20045;-68
2021/05/02 03:53:40;;;;;;;2.40;1.70;;;;;;;;;;2088756;28;20104;-68
2021/05/02 03:54:41;;;;;;;2.30;1.80;;;;;;;;;;2088978;28;20028;-68
2021/05/02 03:55:42;;;;;;;1.85;1.63;;;;;;;;;;2089045;28;20037;-68
2021/05/02 03:56:44;;;;;;;1.77;1.50;;;;;;;;;;2089379;28;20029;-68
2021/05/02 03:57:44;;;;;;;2.28;1.77;;;;;;;;;;2089304;28;20033;-68
2021/05/02 03:58:44;;;;;;;1.85;1.73;;;;;;;;;;2088512;28;20109;-68
2021/05/02 03:59:45;;;;;;;2.70;1.70;;;;;;;;;;2088748;28;20106;-68
2021/05/02 04:00:45;;;;;;;2.25;1.70;;;;;;;;;;2089285;28;20407;-68
2021/05/02 04:01:56;;;;;;;2.13;1.80;;;;;;;;;;2089399;28;20037;-67
2021/05/02 04:02:56;;;;;;;2.53;1.90;;;;;;;;;;2089244;28;20535;-67
2021/05/02 04:03:59;;;;;;;2.00;1.65;;;;;;;;;;2096676;28;20045;-68
2021/05/02 04:04:59;;;;;;;1.85;1.70;;;;;;;;;;2096624;28;20079;-68
2021/05/02 04:05:59;;;;;;;1.92;1.73;;;;;;;;;;2089303;28;20471;-68
2021/05/02 04:07:02;;;;;;;2.70;1.52;;;;;;;;;;2089279;28;20037;-68
2021/05/02 04:08:03;;;;;;;2.10;1.70;;;;;;;;;;2092312;28;20099;-68
2021/05/02 04:09:04;;;;;;;2.63;1.85;;;;;;;;;;2096843;28;20498;-68
2021/05/02 04:10:05;;;;;;;1.80;1.70;;;;;;;;;;2087882;28;20086;-67
2021/05/02 04:11:05;;;;;;;2.20;1.80;;;;;;;;;;2088720;28;20095;-67
2021/05/02 04:12:06;;;;;;;3.10;1.73;;;;;;;;;;2089292;28;20017;-67
2021/05/02 04:13:06;;;;;;;1.70;1.60;;;;;;;;;;2089230;28;20115;-67
2021/05/02 04:14:07;;;;;;;1.90;1.70;;;;;;;;;;2089332;28;20033;-67
2021/05/02 04:15:08;;;;;;;2.00;1.65;;;;;;;;;;2089083;28;20380;-67
2021/05/02 04:16:12;;;;;;;4.75;1.55;;;;;;;;;;2089241;28;20060;-67
2021/05/02 04:17:13;;;;;;;1.63;1.50;;;;;;;;;;2089286;28;20063;-67
2021/05/02 04:18:13;;;;;;;2.30;1.75;;;;;;;;;;2088846;28;20391;-66
2021/05/02 04:19:13;;;;;;;1.63;1.52;;;;;;;;;;2088871;28;20037;-67
2021/05/02 04:20:14;;;;;;;1.58;1.40;;;;;;;;;;2089269;28;20029;-66
2021/05/02 04:21:14;;;;;;;1.88;1.60;;;;;;;;;;2089152;28;20446;-68
2021/05/02 04:22:15;;;;;;;2.78;1.50;;;;;;;;;;2089171;28;20064;-67
2021/05/02 04:23:16;;;;;;;1.60;1.40;;;;;;;;;;2088939;28;20029;-67
2021/05/02 04:24:16;;;;;;;2.05;1.48;;;;;;;;;;2089103;28;20029;-67
2021/05/02 04:25:16;;;;;;;1.50;1.40;;;;;;;;;;2089261;28;20040;-67
2021/05/02 04:26:18;;;;;;;2.05;1.80;;;;;;;;;;2089035;28;20028;-67
2021/05/02 04:27:18;;;;;;;1.50;1.40;;;;;;;;;;2088341;28;20044;-65
2021/05/02 04:28:18;;;;;;;1.90;1.70;;;;;;;;;;2088453;28;20037;-67
2021/05/02 04:29:19;;;;;;;1.50;1.40;;;;;;;;;;2089213;28;20380;-67
2021/05/02 04:30:20;;;;;;;1.60;1.50;;;;;;;;;;2089095;28;20468;-67
2021/05/02 04:31:20;;;;;;;1.70;1.40;;;;;;;;;;2096760;28;20044;-67
2021/05/02 04:32:20;;;;;;;1.55;1.30;;;;;;;;;;2096722;28;20056;-68
2021/05/02 04:33:21;;;;;;;1.60;1.50;;;;;;;;;;2088902;28;20027;-67
2021/05/02 04:34:22;;;;;;;2.63;1.60;;;;;;;;;;2088948;28;20419;-67
2021/05/02 04:35:22;;;;;;;1.63;1.40;;;;;;;;;;2089082;28;20387;-66
2021/05/02 04:36:22;;;;;;;1.75;1.30;;;;;;;;;;2088821;28;20052;-66
2021/05/02 04:37:23;;;;;;;1.85;1.42;;;;;;;;;;2088341;28;20037;-67
2021/05/02 04:38:23;;;;;;;1.83;1.60;;;;;;;;;;2088365;28;20039;-67
2021/05/02 04:39:24;;;;;;;1.60;1.50;;;;;;;;;;2096420;28;20025;-67
2021/05/02 04:40:24;;;;;;;2.00;1.50;;;;;;;;;;2096290;28;20408;-67
2021/05/02 04:41:25;;;;;;;1.80;1.45;;;;;;;;;;2088994;28;20152;-67
2021/05/02 04:42:25;;;;;;;1.80;1.50;;;;;;;;;;2089110;28;20032;-67
2021/05/02 04:43:26;;;;;;;2.30;1.40;;;;;;;;;;2089146;28;20562;-67
2021/05/02 04:44:26;;;;;;;1.90;1.70;;;;;;;;;;2089024;28;20032;-67
2021/05/02 04:45:26;;;;;;;1.50;1.40;;;;;;;;;;2088985;28;20067;-67
2021/05/02 04:46:27;;;;;;;1.55;1.33;;;;;;;;;;2088958;28;20041;-67
2021/05/02 04:47:27;;;;;;;1.58;1.40;;;;;;;;;;2088817;28;20033;-67
2021/05/02 04:48:27;;;;;;;1.83;1.42;;;;;;;;;;2088843;28;20033;-67
2021/05/02 04:49:28;;;;;;;2.45;1.70;;;;;;;;;;2088815;28;20060;-67
2021/05/02 04:50:28;;;;;;;1.50;1.40;;;;;;;;;;2089095;28;20488;-67
2021/05/02 04:51:28;;;;;;;2.22;1.52;;;;;;;;;;2088917;28;20039;-67
2021/05/02 04:52:28;;;;;;;1.67;1.50;;;;;;;;;;2089115;28;20039;-67
2021/05/02 04:53:29;;;;;;;1.60;1.50;;;;;;;;;;2088870;28;20029;-67
2021/05/02 04:54:29;;;;;;;2.05;1.40;;;;;;;;;;2089107;28;20032;-67
2021/05/02 04:55:30;;;;;;;1.58;1.48;;;;;;;;;;2088674;28;20044;-67
2021/05/02 04:56:30;;;;;;;1.50;1.40;;;;;;;;;;2089043;28;20168;-67
2021/05/02 04:57:31;;;;;;;1.52;1.42;;;;;;;;;;2088918;28;20020;-67
2021/05/02 04:58:31;;;;;;;2.17;1.50;;;;;;;;;;2089074;28;20064;-67
2021/05/02 04:59:32;;;;;;;2.10;1.38;;;;;;;;;;2088900;28;20648;-67
2021/05/02 05:00:33;;;;;;;1.52;1.42;;;;;;;;;;2089013;28;20040;-67
2021/05/02 05:01:34;;;;;;;1.40;1.27;;;;;;;;;;2088904;28;20041;-68
2021/05/02 05:02:34;;;;;;;2.22;1.70;;;;;;;;;;2088746;28;20037;-68
2021/05/02 05:03:34;;;;;;;1.85;1.70;;;;;;;;;;2088843;28;20033;-68
2021/05/02 05:04:35;;;;;;;1.40;1.30;;;;;;;;;;2088923;28;20403;-68
2021/05/02 05:05:35;;;;;;;1.70;1.60;;;;;;;;;;2089758;28;20035;-68
2021/05/02 05:06:36;;;;;;;1.58;1.48;;;;;;;;;;2090850;28;20113;-68
2021/05/02 05:07:36;;;;;;;1.70;1.60;;;;;;;;;;2090458;28;20033;-68
2021/05/02 05:08:37;;;;;;;1.52;1.42;;;;;;;;;;2090731;28;20032;-68
2021/05/02 05:09:37;;;;;;;1.80;1.50;;;;;;;;;;2090572;28;20036;-67
2021/05/02 05:10:38;;;;;;;1.77;1.40;;;;;;;;;;2090560;28;20086;-67
2021/05/02 05:11:38;;;;;;;1.50;1.33;;;;;;;;;;2090574;28;20029;-67
2021/05/02 05:12:39;;;;;;;2.25;1.60;;;;;;;;;;2090809;28;20044;-67
2021/05/02 05:13:40;;;;;;;1.40;1.30;;;;;;;;;;2090578;28;20143;-67
2021/05/02 05:14:40;;;;;;;2.17;1.60;;;;;;;;;;2090797;28;20024;-67
2021/05/02 05:15:40;;;;;;;1.70;1.50;;;;;;;;;;2090557;28;20061;-67
2021/05/02 05:16:41;;;;;;;1.48;1.30;;;;;;;;;;2090535;28;20043;-68
2021/05/02 05:17:41;;;;;;;1.92;1.30;;;;;;;;;;2090218;28;20029;-67
2021/05/02 05:18:42;;;;;;;1.50;1.30;;;;;;;;;;2090817;28;20021;-67
2021/05/02 05:19:43;;;;;;;1.65;1.50;;;;;;;;;;2090417;28;20577;-68
2021/05/02 05:20:43;;;;;;;1.50;1.40;;;;;;;;;;2090675;28;20025;-67
2021/05/02 05:21:43;;;;;;;1.25;1.13;;;;;;;;;;2090542;28;20112;-66
2021/05/02 05:22:44;;;;;;;1.77;1.27;;;;;;;;;;2090799;28;20037;-66
2021/05/02 05:23:44;;;;;;;1.38;1.27;;;;;;;;;;2090715;28;20454;-66
2021/05/02 05:24:44;;;;;;;2.20;1.42;;;;;;;;;;2090330;28;20441;-66
2021/05/02 05:25:45;;;;;;;1.40;1.25;;;;;;;;;;2090512;28;20432;-66
2021/05/02 05:26:45;;;;;;;1.55;1.38;;;;;;;;;;2090658;28;20672;-66
2021/05/02 05:27:46;;;;;;;1.63;1.33;;;;;;;;;;2090568;28;20033;-66
2021/05/02 05:28:46;;;;;;;1.65;1.30;;;;;;;;;;2090597;28;20041;-66
2021/05/02 05:29:46;;;;;;;1.63;1.40;;;;;;;;;;2090477;28;20055;-67
2021/05/02 05:30:47;;;;;;;1.33;1.20;;;;;;;;;;2090539;28;20120;-67
2021/05/02 05:31:47;;;;;;;1.65;1.55;;;;;;;;;;2090527;28;20493;-67
2021/05/02 05:32:47;;;;;;;1.27;1.17;;;;;;;;;;2090279;28;20376;-67
2021/05/02 05:33:48;;;;;;;1.48;1.38;;;;;;;;;;2090515;28;20069;-66
2021/05/02 05:34:48;;;;;;;1.40;1.25;;;;;;;;;;2090233;28;20062;-66
2021/05/02 05:35:48;;;;;;;1.35;1.20;;;;;;;;;;2090462;28;20045;-66
2021/05/02 05:36:49;;;;;;;1.40;1.30;;;;;;;;;;2090378;28;20086;-67
2021/05/02 05:37:49;;;;;;;1.40;1.30;;;;;;;;;;2090459;28;20037;-66
2021/05/02 05:38:49;;;;;;;1.55;1.20;;;;;;;;;;2090485;28;20029;-66
2021/05/02 05:39:51;;;;;;;1.42;1.30;;;;;;;;;;2090325;28;20033;-66
2021/05/02 05:40:51;;;;;;;1.40;1.30;;;;;;;;;;2090441;28;20041;-66
2021/05/02 05:41:52;;;;;;;1.50;1.40;;;;;;;;;;2090568;28;20104;-66
2021/05/02 05:42:52;;;;;;;1.33;1.23;;;;;;;;;;2090338;28;20432;-66
2021/05/02 05:43:53;;;;;;;1.60;1.33;;;;;;;;;;2090489;28;20472;-67
2021/05/02 05:44:53;;;;;;;1.52;1.30;;;;;;;;;;2090373;28;20017;-66
2021/05/02 05:45:54;;;;;;;1.17;1.08;;;;;;;;;;2097988;28;20115;-66
2021/05/02 05:46:54;;;;;;;2.35;1.50;;;;;;;;;;2097649;28;20032;-66
2021/05/02 05:47:55;;;;;;;1.98;1.42;;;;;;;;;;2090392;28;20459;-67
2021/05/02 05:48:55;;;;;;;1.50;1.15;;;;;;;;;;2090299;28;20040;-66
2021/05/02 05:49:56;;;;;;;1.30;1.20;;;;;;;;;;2090273;28;20037;-66
2021/05/02 05:50:56;;;;;;;1.42;1.30;;;;;;;;;;2090269;28;20032;-66
2021/05/02 05:51:56;;;;;;;1.48;1.30;;;;;;;;;;2090310;28;20033;-66
2021/05/02 05:52:57;;;;;;;1.75;1.45;;;;;;;;;;2090274;28;20094;-66
2021/05/02 05:53:57;;;;;;;1.40;1.30;;;;;;;;;;2090484;28;20078;-66
2021/05/02 05:54:57;;;;;;;1.38;1.27;;;;;;;;;;2090220;28;20025;-66
2021/05/02 05:55:58;;;;;;;1.38;1.25;;;;;;;;;;2090377;28;20488;-66
2021/05/02 05:56:58;;;;;;;1.30;1.20;;;;;;;;;;2090212;28;20476;-66
2021/05/02 05:57:58;;;;;;;1.20;1.10;;;;;;;;;;2090392;28;20120;-66
2021/05/02 05:58:59;;;;;;;1.40;1.30;;;;;;;;;;2090318;28;20124;-66
2021/05/02 05:59:59;;;;;;;1.38;1.25;;;;;;;;;;2090382;28;20033;-66
2021/05/02 06:00:59;;;;;;;1.40;1.30;;;;;;;;;;2090264;28;20036;-67
2021/05/02 06:02:00;;;;;;;1.63;1.35;;;;;;;;;;2090064;28;20033;-66
2021/05/02 06:03:00;;;;;;;1.58;1.33;;;;;;;;;;2090281;28;20025;-66
2021/05/02 06:04:01;;;;;;;1.52;1.40;;;;;;;;;;2097797;28;20124;-66
2021/05/02 06:05:02;;;;;;;1.40;1.30;;;;;;;;;;2097650;28;20036;-67
2021/05/02 06:06:03;;;;;;;1.30;1.20;;;;;;;;;;2090134;28;20090;-67
2021/05/02 06:07:04;;;;;;;1.65;1.30;;;;;;;;;;2090296;28;20544;-67
2021/05/02 06:08:04;;;;;;;1.40;1.30;;;;;;;;;;2090283;28;20471;-66
2021/05/02 06:09:08;;;;;;;1.75;1.40;;;;;;;;;;2097461;28;20028;-66